FlightSource - Aviation Photo Database

World Wide Airport Lookup


Search by ICAO
Or
Search by City

FlightSource.ca - Aviation Photo Database - Centerville Municipal Airport Information
Airport Identification
Name: Centerville Municipal Airport
ICAO: KTVK
IATA:
Airport Location
City: Centerville
Region: IA
Country: United States
Continent: North America
Latitude: 40.6839
Longitude: -92.901
Airport Information
Type: Small Airport
Elevation: 1028 Feet ASL
Flight Status: KTVK
More Info: KTVK
Airport Weather    
Metar: KTVK 221535Z AUTO 18018G22KT 10SM 06/05 A2944 RMK AO2
TAF:


Advertisement